Time;durP1;ratioP1;P1;durP2;ratioP2;P2;SDS_P1;SDS_P2;PMS_P1;PMS_P2;Temp;Humidity;BMP_temperature;BMP_pressure;BME280_temperature;BME280_humidity;BME280_pressure;Samples;Min_cycle;Max_cycle;Signal;HPM_P1;HPM_P2
2023/05/01 00:02:20;;;;;;;3.85;3.50;;;;;;;8.03;90.26;149318.53;5084997;28;20197;-65
2023/05/01 00:04:46;;;;;;;4.03;3.63;;;;;;;8.01;90.62;149312.13;5086806;28;20251;-66
2023/05/01 00:07:12;;;;;;;4.03;3.63;;;;;;;8.05;90.67;149322.38;5082385;28;20047;-66
2023/05/01 00:09:38;;;;;;;3.97;3.58;;;;;;;8.11;90.84;149339.03;5092924;28;20103;-66
2023/05/01 00:12:03;;;;;;;5.03;4.00;;;;;;;8.15;89.63;149346.72;5084093;28;20024;-66
2023/05/01 00:14:29;;;;;;;4.00;3.60;;;;;;;8.10;90.15;149336.47;5102861;28;20465;-67
2023/05/01 00:16:55;;;;;;;4.50;4.10;;;;;;;8.09;90.54;149333.94;5085496;28;20024;-65
2023/05/01 00:19:21;;;;;;;4.15;3.65;;;;;;;8.16;90.64;149350.53;5094634;28;20038;-65
2023/05/01 00:21:47;;;;;;;3.65;3.30;;;;;;;8.11;91.03;149337.78;5102709;28;20366;-65
2023/05/01 00:24:15;;;;;;;4.25;3.85;;;;;;;8.08;90.77;149330.06;5084610;28;20044;-66
2023/05/01 00:26:41;;;;;;;3.97;3.47;;;;;;;8.09;90.49;149332.63;5102453;28;20038;-66
2023/05/01 00:29:07;;;;;;;3.97;3.67;;;;;;;8.03;90.54;149317.28;5083818;28;20029;-65
2023/05/01 00:31:33;;;;;;;4.30;3.67;;;;;;;8.02;90.95;149315.97;5095916;28;20046;-66
2023/05/01 00:33:58;;;;;;;3.50;3.20;;;;;;;8.07;90.43;149327.53;5102537;28;20019;-66
2023/05/01 00:36:24;;;;;;;4.78;3.75;;;;;;;8.09;90.88;149333.94;5080258;28;20031;-65
2023/05/01 00:38:50;;;;;;;4.03;3.63;;;;;;;8.11;91.70;149339.03;5082308;28;20028;-66
2023/05/01 00:41:15;;;;;;;4.57;3.60;;;;;;;8.19;91.43;149356.94;5067315;28;20047;-66
2023/05/01 00:43:41;;;;;;;3.90;3.58;;;;;;;8.16;91.31;149350.53;5067558;28;20050;-66
2023/05/01 00:46:08;;;;;;;4.30;3.90;;;;;;;8.20;90.26;149359.53;5074222;28;20321;-65
2023/05/01 00:48:34;;;;;;;4.18;3.78;;;;;;;8.18;90.72;149355.69;5082140;28;20032;-65
2023/05/01 00:51:03;;;;;;;5.05;3.83;;;;;;;8.23;90.67;149367.19;5082866;28;20048;-65
2023/05/01 00:53:30;;;;;;;3.60;3.30;;;;;;;8.25;91.01;149372.28;5102610;28;20253;-65
2023/05/01 00:55:57;;;;;;;3.75;3.10;;;;;;;8.26;90.39;149374.88;5106505;28;20024;-63
2023/05/01 00:58:23;;;;;;;4.93;3.80;;;;;;;8.21;90.63;149362.06;5093844;28;20024;-64
2023/05/01 01:00:49;;;;;;;4.90;3.45;;;;;;;8.17;91.00;149351.84;5086082;28;20367;-64
2023/05/01 01:03:15;;;;;;;5.53;3.58;;;;;;;8.09;90.41;149333.94;5088678;28;20074;-65
2023/05/01 01:06:08;;;;;;;3.58;3.28;;;;;;;8.19;89.60;149356.94;5106421;28;20044;-65
2023/05/01 01:08:48;;;;;;;3.42;3.03;;;;;;;8.11;90.42;149339.03;5077774;28;20063;-65
2023/05/01 01:11:25;;;;;;;3.00;2.80;;;;;;;8.18;90.35;149355.69;5105124;28;20024;-65
2023/05/01 01:13:57;;;;;;;3.83;3.42;;;;;;;8.23;90.36;149368.47;5089911;28;20033;-64
2023/05/01 01:16:23;;;;;;;;;;;;;;;8.24;90.88;149369.78;5098455;28;20024;-65
2023/05/01 01:18:57;;;;;;;3.45;3.15;;;;;;;8.11;90.44;149337.78;5098661;28;20082;-65
2023/05/01 01:21:38;;;;;;;3.67;3.38;;;;;;;8.28;90.19;149380.03;5089271;28;20032;-64
2023/05/01 01:24:18;;;;;;;4.07;3.67;;;;;;;8.17;89.90;149351.84;5104806;28;20091;-65
2023/05/01 01:27:14;;;;;;;5.18;3.65;;;;;;;8.28;89.93;149380.03;5085495;28;20025;-65
2023/05/01 01:29:50;;;;;;;3.95;3.65;;;;;;;8.12;90.75;149341.59;5085348;28;20086;-64
2023/05/01 01:32:55;;;;;;;3.60;3.30;;;;;;;8.21;89.29;149362.06;5104861;28;20036;-65
2023/05/01 01:35:26;;;;;;;4.55;3.50;;;;;;;8.19;88.38;149358.22;5105702;28;20024;-64
2023/05/01 01:37:54;;;;;;;5.07;4.07;;;;;;;8.26;89.03;149376.13;5089716;28;20028;-64
2023/05/01 01:40:28;;;;;;;4.95;3.42;;;;;;;8.22;88.28;149365.94;5096686;28;20036;-64
2023/05/01 01:43:06;;;;;;;3.72;3.28;;;;;;;8.26;88.84;149374.88;5105557;28;20024;-65
2023/05/01 01:45:48;;;;;;;5.53;3.40;;;;;;;8.18;89.56;149354.38;5082590;28;20028;-64
2023/05/01 01:48:20;;;;;;;5.32;3.42;;;;;;;8.22;89.29;149364.63;5085141;28;20393;-65
2023/05/01 01:50:46;;;;;;;4.47;3.45;;;;;;;8.28;89.72;149380.03;5085193;28;20031;-64
2023/05/01 01:53:16;;;;;;;4.18;3.47;;;;;;;8.19;89.41;149356.94;5084989;28;20028;-64
2023/05/01 01:55:44;;;;;;;4.18;3.78;;;;;;;8.29;88.63;149382.53;5099411;28;20058;-64
2023/05/01 01:58:12;;;;;;;3.72;3.40;;;;;;;8.32;89.04;149388.97;5095435;28;20024;-64
2023/05/01 02:00:41;;;;;;;5.35;3.50;;;;;;;8.21;89.29;149362.06;5090237;28;20335;-65
2023/05/01 02:03:11;;;;;;;4.57;3.58;;;;;;;8.28;88.94;149380.03;5086108;28;20283;-64
2023/05/01 02:05:39;;;;;;;3.80;3.50;;;;;;;8.25;88.77;149372.28;5084076;28;20055;-65
2023/05/01 02:08:07;;;;;;;3.70;3.40;;;;;;;8.25;89.65;149373.59;5102355;28;20228;-65
2023/05/01 02:10:35;;;;;;;4.05;3.10;;;;;;;8.26;89.74;149374.88;5091958;28;20024;-63
2023/05/01 02:13:02;;;;;;;4.15;3.10;;;;;;;8.18;89.16;149355.69;5092917;28;20035;-64
2023/05/01 02:15:29;;;;;;;4.60;3.40;;;;;;;8.17;89.63;149351.84;5082543;28;20228;-64
2023/05/01 02:17:56;;;;;;;3.83;3.38;;;;;;;8.17;90.28;149351.84;5104108;28;20028;-64
2023/05/01 02:20:22;;;;;;;3.50;3.25;;;;;;;8.13;89.36;149344.13;5104749;28;20020;-65
2023/05/01 02:22:49;;;;;;;3.40;2.90;;;;;;;8.16;88.60;149349.28;5104667;28;20035;-64
2023/05/01 02:25:15;;;;;;;3.95;3.25;;;;;;;8.20;89.24;149359.53;5104787;28;20035;-64
2023/05/01 02:27:54;;;;;;;3.58;3.28;;;;;;;8.26;89.50;149374.88;5098984;28;20562;-65
2023/05/01 02:30:20;;;;;;;3.47;3.17;;;;;;;8.25;90.38;149372.28;5068885;28;20232;-64
2023/05/01 02:32:46;;;;;;;4.60;4.10;;;;;;;8.23;90.13;149367.19;5104524;28;20087;-65
2023/05/01 02:35:11;;;;;;;3.70;3.40;;;;;;;8.21;89.46;149362.06;5088659;28;20039;-65
2023/05/01 02:37:37;;;;;;;4.10;3.80;;;;;;;8.18;90.26;149354.38;5091015;28;20039;-65
2023/05/01 02:40:04;;;;;;;4.65;3.60;;;;;;;8.19;90.17;149356.94;5092799;28;20028;-65
2023/05/01 02:42:31;;;;;;;3.70;3.40;;;;;;;8.16;90.06;149350.53;5104257;28;20032;-65
2023/05/01 02:45:02;;;;;;;3.45;3.15;;;;;;;8.25;89.60;149372.28;5104156;28;20016;-65
2023/05/01 02:47:33;;;;;;;5.00;3.92;;;;;;;8.14;89.77;149345.44;5084091;28;20040;-65
2023/05/01 02:49:59;;;;;;;5.20;4.22;;;;;;;8.24;90.04;149369.78;5083720;28;20028;-65
2023/05/01 02:52:26;;;;;;;5.03;3.50;;;;;;;8.20;90.07;149359.53;5095449;28;20085;-65
2023/05/01 02:54:52;;;;;;;3.88;3.50;;;;;;;8.31;90.16;149387.69;5104035;28;20312;-66
2023/05/01 02:57:19;;;;;;;4.72;3.80;;;;;;;8.33;89.13;149392.78;5103436;28;20092;-64
2023/05/01 02:59:45;;;;;;;4.07;3.65;;;;;;;8.34;90.26;149394.06;5085732;28;20313;-64
2023/05/01 03:02:10;;;;;;;4.07;3.67;;;;;;;8.19;87.88;149356.94;5086309;28;20044;-65
2023/05/01 03:04:36;;;;;;;4.25;3.85;;;;;;;8.33;87.79;149391.53;5083480;28;20116;-66
2023/05/01 03:07:03;;;;;;;3.70;3.40;;;;;;;8.38;88.66;149405.63;5091832;28;20043;-66
2023/05/01 03:09:30;;;;;;;4.28;3.55;;;;;;;8.34;87.89;149394.06;5100246;28;20033;-65
2023/05/01 03:11:56;;;;;;;3.80;3.50;;;;;;;8.42;87.25;149415.84;5083689;28;20033;-65
2023/05/01 03:14:22;;;;;;;5.07;3.70;;;;;;;8.41;87.37;149412.03;5102716;28;20049;-64
2023/05/01 03:16:48;;;;;;;5.95;5.35;;;;;;;8.43;87.74;149418.38;5089223;28;20024;-65
2023/05/01 03:19:14;;;;;;;4.70;4.30;;;;;;;8.48;87.50;149430.00;5075054;28;20024;-65
2023/05/01 03:21:40;;;;;;;4.32;3.90;;;;;;;8.54;88.06;149444.06;5103549;28;20031;-64
2023/05/01 03:24:05;;;;;;;4.20;3.78;;;;;;;8.54;87.25;149445.34;5103525;28;20046;-65
2023/05/01 03:26:31;;;;;;;3.90;3.53;;;;;;;8.59;87.42;149458.16;5083181;28;20051;-65
2023/05/01 03:28:57;;;;;;;4.53;3.95;;;;;;;8.68;87.33;149479.94;5098833;28;20047;-65
2023/05/01 03:31:23;;;;;;;4.57;4.18;;;;;;;8.61;87.48;149462.00;5095685;28;20028;-65
2023/05/01 03:33:49;;;;;;;3.58;3.00;;;;;;;8.69;86.34;149481.19;5103493;28;20028;-65
2023/05/01 03:36:15;;;;;;;4.38;3.13;;;;;;;8.62;85.71;149465.84;5102205;28;20404;-64
2023/05/01 03:38:41;;;;;;;3.58;3.20;;;;;;;8.71;87.20;149487.59;5083024;28;20078;-64
2023/05/01 03:41:07;;;;;;;4.25;3.85;;;;;;;8.65;87.56;149472.25;5099755;28;20028;-64
2023/05/01 03:43:33;;;;;;;3.72;3.28;;;;;;;8.80;87.03;149510.63;5103250;28;20076;-64
2023/05/01 03:45:58;;;;;;;3.80;3.50;;;;;;;8.81;86.51;149513.19;5095784;28;20024;-64
2023/05/01 03:48:24;;;;;;;3.47;3.17;;;;;;;8.88;84.90;149528.56;5085188;28;20040;-65
2023/05/01 03:50:50;;;;;;;3.15;2.95;;;;;;;8.89;85.21;149532.44;5103060;28;20352;-63
2023/05/01 03:53:16;;;;;;;3.65;3.35;;;;;;;8.98;85.71;149555.47;5085083;28;20032;-64
2023/05/01 03:55:42;;;;;;;4.05;3.20;;;;;;;8.96;86.01;149549.06;5095839;28;20138;-64
2023/05/01 03:58:09;;;;;;;4.00;3.20;;;;;;;8.98;85.63;149555.47;5103717;28;20032;-64
2023/05/01 04:00:36;;;;;;;3.53;3.22;;;;;;;8.96;84.95;149550.38;5098986;28;20024;-65
2023/05/01 04:03:02;;;;;;;3.17;2.88;;;;;;;9.04;85.43;149568.31;5082720;28;20049;-65
2023/05/01 04:05:29;;;;;;;2.90;2.60;;;;;;;9.10;84.95;149583.66;5082179;28;20321;-65
2023/05/01 04:07:55;;;;;;;2.70;2.50;;;;;;;9.10;84.78;149583.66;5079892;28;20040;-65
2023/05/01 04:10:21;;;;;;;3.88;3.00;;;;;;;9.05;83.66;149570.81;5092672;28;20028;-65
2023/05/01 04:12:46;;;;;;;3.28;2.63;;;;;;;9.12;83.74;149588.75;5088081;28;20231;-65
2023/05/01 04:15:12;;;;;;;2.33;2.10;;;;;;;9.15;83.44;149596.47;5102279;28;20054;-64
2023/05/01 04:17:38;;;;;;;3.58;2.30;;;;;;;9.14;82.96;149593.91;5082424;28;20078;-64
2023/05/01 04:20:05;;;;;;;3.63;2.35;;;;;;;9.19;82.91;149605.44;5098694;28;20308;-65
2023/05/01 04:22:31;;;;;;;3.90;2.45;;;;;;;9.19;83.69;149605.44;5102635;28;20039;-64
2023/05/01 04:24:57;;;;;;;2.75;2.08;;;;;;;9.30;83.67;149633.63;5102354;28;20016;-66
2023/05/01 04:27:23;;;;;;;2.53;2.33;;;;;;;9.33;84.65;149641.28;5084022;28;20031;-64
2023/05/01 04:29:50;;;;;;;2.60;2.40;;;;;;;9.38;84.47;149654.13;5084155;28;20051;-64
2023/05/01 04:32:16;;;;;;;2.75;2.55;;;;;;;9.32;84.03;149638.75;5095449;28;20024;-64
2023/05/01 04:34:42;;;;;;;3.97;2.67;;;;;;;9.36;83.88;149647.72;5102325;28;20028;-64
2023/05/01 04:37:08;;;;;;;3.08;2.67;;;;;;;9.31;83.68;149636.19;5094232;28;20044;-64
2023/05/01 04:39:35;;;;;;;2.80;2.60;;;;;;;9.38;84.77;149654.13;5085460;28;20032;-65
2023/05/01 04:42:01;;;;;;;3.38;2.60;;;;;;;9.40;84.57;149659.22;5102430;28;20020;-65
2023/05/01 04:44:27;;;;;;;3.45;3.15;;;;;;;9.40;85.56;149659.22;5102462;28;20028;-65
2023/05/01 04:46:53;;;;;;;3.90;3.60;;;;;;;9.46;84.49;149674.63;5102297;28;20069;-65
2023/05/01 04:49:18;;;;;;;4.20;3.72;;;;;;;9.47;83.34;149677.16;5093000;28;20039;-65
2023/05/01 04:51:44;;;;;;;4.45;4.05;;;;;;;9.29;83.04;149632.34;5086902;28;20035;-65
2023/05/01 04:54:10;;;;;;;3.80;3.40;;;;;;;9.37;83.27;149650.28;5102233;28;20073;-65
2023/05/01 04:56:36;;;;;;;4.97;3.85;;;;;;;9.40;83.49;149659.22;5101752;28;20040;-64
2023/05/01 04:59:01;;;;;;;4.68;4.07;;;;;;;9.46;83.90;149673.31;5086688;28;20054;-66
2023/05/01 05:01:27;;;;;;;4.25;3.85;;;;;;;9.52;83.86;149687.41;5047176;28;20031;-64
2023/05/01 05:03:52;;;;;;;4.05;3.70;;;;;;;9.55;83.23;149695.09;5087459;28;20031;-64
2023/05/01 05:06:18;;;;;;;4.38;3.97;;;;;;;9.56;84.29;149698.94;5101556;28;20040;-65
2023/05/01 05:08:44;;;;;;;4.63;4.10;;;;;;;9.57;83.11;149700.25;5082076;28;20096;-64
2023/05/01 05:11:09;;;;;;;4.80;4.28;;;;;;;9.43;83.18;149665.63;5082002;28;20062;-65
2023/05/01 05:13:35;;;;;;;4.03;3.72;;;;;;;9.45;83.08;149670.78;5093455;28;20249;-64
2023/05/01 05:16:01;;;;;;;8.25;4.55;;;;;;;9.53;82.20;149690.00;5095187;28;20213;-64
2023/05/01 05:18:27;;;;;;;4.65;4.10;;;;;;;9.43;84.96;149666.91;5083680;28;20031;-65
2023/05/01 05:20:52;;;;;;;4.30;3.90;;;;;;;9.51;83.65;149686.16;5102014;28;20031;-64
2023/05/01 05:23:18;;;;;;;4.55;3.90;;;;;;;9.57;84.21;149700.25;5084043;28;20028;-64
2023/05/01 05:25:44;;;;;;;4.28;3.88;;;;;;;9.60;84.08;149707.94;5101876;28;20023;-65
2023/05/01 05:28:09;;;;;;;4.00;3.60;;;;;;;9.61;83.21;149711.78;5094139;28;20310;-64
2023/05/01 05:30:35;;;;;;;4.70;4.22;;;;;;;9.64;83.58;149718.19;5084801;28;20069;-64
2023/05/01 05:33:01;;;;;;;6.07;4.07;;;;;;;9.71;83.34;149734.88;5101923;28;20070;-64
2023/05/01 05:35:27;;;;;;;5.18;4.18;;;;;;;9.73;83.66;149741.22;5101794;28;20024;-63
2023/05/01 05:37:53;;;;;;;5.97;4.35;;;;;;;9.65;84.17;149720.75;5088118;28;20024;-65
2023/05/01 05:40:19;;;;;;;5.80;4.75;;;;;;;9.70;83.91;149733.56;5072737;28;20085;-63
2023/05/01 05:42:44;;;;;;;4.95;4.50;;;;;;;9.76;83.93;149748.97;5087434;28;20024;-64
2023/05/01 05:45:10;;;;;;;4.72;4.30;;;;;;;9.80;83.71;149757.91;5105575;28;20035;-64
2023/05/01 05:47:36;;;;;;;6.72;4.45;;;;;;;9.65;83.93;149720.75;5085621;28;20028;-64
2023/05/01 05:50:02;;;;;;;4.65;4.25;;;;;;;9.69;83.25;149731.03;5100149;28;20042;-65
2023/05/01 05:52:28;;;;;;;4.65;4.25;;;;;;;9.81;83.50;149760.50;5104849;28;20088;-64
2023/05/01 05:54:54;;;;;;;4.60;4.15;;;;;;;9.88;82.92;149777.16;5098938;28;20036;-65
2023/05/01 05:57:20;;;;;;;4.30;3.90;;;;;;;9.92;82.23;149787.38;5084580;28;20028;-64
2023/05/01 05:59:45;;;;;;;4.10;3.70;;;;;;;9.94;81.82;149793.78;5104401;28;20031;-64
2023/05/01 06:02:11;;;;;;;5.05;4.25;;;;;;;9.96;83.36;149797.63;5086067;28;20326;-65
2023/05/01 06:04:37;;;;;;;5.78;4.00;;;;;;;10.00;82.26;149807.88;5092376;28;20052;-64
2023/05/01 06:07:02;;;;;;;4.95;4.38;;;;;;;9.92;81.91;149788.69;5083770;28;20048;-65
2023/05/01 06:09:28;;;;;;;4.95;4.45;;;;;;;10.02;81.69;149813.03;5085476;28;20043;-65
2023/05/01 06:11:54;;;;;;;6.95;4.32;;;;;;;10.07;82.66;149824.56;5104613;28;20028;-65
2023/05/01 06:14:20;;;;;;;5.47;4.35;;;;;;;10.03;81.99;149815.56;5069572;28;20036;-64
2023/05/01 06:16:45;;;;;;;6.95;4.80;;;;;;;9.94;80.73;149792.53;5084495;28;20025;-64
2023/05/01 06:19:11;;;;;;;4.55;4.15;;;;;;;9.92;80.11;149788.69;5074189;28;20020;-65
2023/05/01 06:21:37;;;;;;;7.05;4.43;;;;;;;9.99;80.64;149805.31;5104654;28;20043;-66
2023/05/01 06:24:03;;;;;;;6.20;4.53;;;;;;;9.81;80.51;149760.50;5086660;28;20086;-65
2023/05/01 06:26:28;;;;;;;5.85;4.60;;;;;;;9.97;80.63;149801.47;5104458;28;20032;-65
2023/05/01 06:28:54;;;;;;;6.47;5.10;;;;;;;9.87;82.43;149774.59;5090890;28;20358;-65
2023/05/01 06:31:20;;;;;;;6.80;4.88;;;;;;;10.03;81.94;149815.56;5092562;28;20028;-65
2023/05/01 06:33:45;;;;;;;5.57;4.90;;;;;;;10.12;81.52;149838.69;5104309;28;20032;-65
2023/05/01 06:36:11;;;;;;;7.05;5.88;;;;;;;10.11;80.79;149834.84;5104535;28;20248;-66
2023/05/01 06:38:36;;;;;;;6.32;5.72;;;;;;;10.22;80.98;149861.72;5084821;28;20039;-65
2023/05/01 06:41:06;;;;;;;7.10;5.80;;;;;;;10.25;80.31;149870.72;5098680;28;20032;-65
2023/05/01 06:43:32;;;;;;;6.60;5.65;;;;;;;10.26;80.45;149872.00;5104150;28;20055;-65
2023/05/01 06:45:57;;;;;;;6.43;5.72;;;;;;;10.40;79.56;149907.94;5104031;28;20034;-64
2023/05/01 06:48:24;;;;;;;7.72;5.82;;;;;;;10.39;79.08;149904.09;5103336;28;20051;-65
2023/05/01 06:50:49;;;;;;;6.03;4.97;;;;;;;10.32;79.89;149888.66;5083991;28;20028;-67
2023/05/01 06:53:15;;;;;;;6.72;6.05;;;;;;;10.49;78.97;149929.78;5099627;28;20095;-65
2023/05/01 06:55:41;;;;;;;8.68;5.97;;;;;;;10.46;78.43;149923.34;5092291;28;20054;-65
2023/05/01 06:58:07;;;;;;;8.60;6.05;;;;;;;10.39;79.04;149904.09;5090202;28;20065;-65
2023/05/01 07:00:35;;;;;;;7.28;5.90;;;;;;;10.42;78.35;149911.78;5101830;28;20201;-65
2023/05/01 07:03:02;;;;;;;6.65;5.72;;;;;;;10.38;77.80;149902.81;5083214;28;20032;-65
2023/05/01 07:05:28;;;;;;;9.98;5.95;;;;;;;10.53;77.72;149941.31;5064896;28;20048;-65
2023/05/01 07:07:53;;;;;;;6.43;5.40;;;;;;;10.56;77.92;149947.72;5096269;28;20074;-65
2023/05/01 07:10:19;;;;;;;6.72;6.00;;;;;;;10.58;78.47;149951.56;5095499;28;20029;-65
2023/05/01 07:12:46;;;;;;;5.97;5.43;;;;;;;10.64;77.29;149966.94;5087117;28;20020;-64
2023/05/01 07:15:14;;;;;;;8.40;5.60;;;;;;;10.62;76.27;149963.09;5103667;28;20091;-64
2023/05/01 07:17:39;;;;;;;8.77;5.45;;;;;;;10.69;75.70;149979.78;5065991;28;20249;-64
2023/05/01 07:20:06;;;;;;;9.52;6.05;;;;;;;10.66;77.89;149972.06;5097900;28;20031;-66
2023/05/01 07:22:31;;;;;;;8.38;5.25;;;;;;;10.75;76.89;149995.16;5103411;28;20089;-65
2023/05/01 07:24:57;;;;;;;8.63;5.68;;;;;;;10.88;75.30;150028.50;5098205;28;20040;-67
2023/05/01 07:27:23;;;;;;;6.47;5.75;;;;;;;10.96;76.37;150047.75;5083198;28;20031;-67
2023/05/01 07:29:49;;;;;;;7.47;5.05;;;;;;;10.93;75.52;150040.06;5103343;28;20149;-66
2023/05/01 07:32:15;;;;;;;7.10;5.03;;;;;;;11.01;75.13;150059.28;5097445;28;20096;-66
2023/05/01 07:34:41;;;;;;;6.60;5.20;;;;;;;10.98;72.59;150051.59;5103125;28;20036;-66
2023/05/01 07:37:06;;;;;;;6.30;4.88;;;;;;;11.08;72.36;150076.00;5096873;28;20190;-65
2023/05/01 07:39:32;;;;;;;6.32;5.00;;;;;;;10.91;72.91;150033.66;5084218;28;20028;-66
2023/05/01 07:41:57;;;;;;;5.18;4.38;;;;;;;11.18;73.27;150102.91;5103343;28;20327;-66
2023/05/01 07:44:23;;;;;;;10.43;5.03;;;;;;;11.14;72.72;150092.63;5102984;28;20073;-66
2023/05/01 07:46:49;;;;;;;6.80;4.53;;;;;;;11.09;72.93;150078.50;5090608;28;20198;-67
2023/05/01 07:49:14;;;;;;;5.38;4.20;;;;;;;11.08;72.88;150077.25;5082503;28;20033;-66
2023/05/01 07:51:41;;;;;;;5.00;4.43;;;;;;;11.27;73.65;150123.44;5084512;28;20037;-66
2023/05/01 07:54:06;;;;;;;6.78;4.85;;;;;;;11.16;72.14;150097.78;5102240;28;20074;-66
2023/05/01 07:56:32;;;;;;;7.00;4.60;;;;;;;11.14;72.90;150092.63;5083708;28;20024;-66
2023/05/01 07:58:58;;;;;;;5.43;4.50;;;;;;;11.19;71.66;150104.22;5095391;28;20252;-65
2023/05/01 08:01:24;;;;;;;5.93;3.90;;;;;;;11.46;72.29;150172.22;5102562;28;20098;-65
2023/05/01 08:03:49;;;;;;;5.53;4.47;;;;;;;11.54;71.19;150192.75;5098307;28;20032;-66
2023/05/01 08:06:15;;;;;;;5.82;4.10;;;;;;;11.55;70.88;150194.03;5082754;28;20040;-67
2023/05/01 08:08:41;;;;;;;6.60;4.45;;;;;;;11.57;71.14;150199.13;5082402;28;20046;-67
2023/05/01 08:11:07;;;;;;;5.35;4.30;;;;;;;11.73;70.87;150238.97;5096839;28;20055;-66
2023/05/01 08:13:33;;;;;;;7.90;4.75;;;;;;;11.73;69.58;150240.22;5092911;28;20034;-67
2023/05/01 08:16:02;;;;;;;7.30;4.40;;;;;;;11.72;71.51;150236.38;5087423;28;20051;-65
2023/05/01 08:18:29;;;;;;;5.35;4.20;;;;;;;11.40;68.84;150156.78;5102695;28;20039;-67
2023/05/01 08:20:54;;;;;;;7.18;4.15;;;;;;;11.66;68.24;150221.00;5102914;28;20031;-66
2023/05/01 08:23:20;;;;;;;6.55;4.60;;;;;;;11.79;69.25;150253.09;5102394;28;20024;-67
2023/05/01 08:25:45;;;;;;;7.07;4.65;;;;;;;11.84;70.15;150267.22;5091128;28;20028;-66
2023/05/01 08:28:13;;;;;;;6.28;4.18;;;;;;;11.86;69.87;150271.06;5088845;28;20031;-66
2023/05/01 08:30:39;;;;;;;6.68;4.35;;;;;;;11.96;69.26;150296.78;5100262;28;20032;-66
2023/05/01 08:33:04;;;;;;;13.00;4.43;;;;;;;11.96;69.94;150296.78;5099569;28;20020;-65
2023/05/01 08:35:30;;;;;;;7.90;4.70;;;;;;;11.95;69.05;150292.91;5101950;28;20020;-64
2023/05/01 08:37:56;;;;;;;8.05;4.35;;;;;;;12.00;69.19;150305.72;5089670;28;20025;-65
2023/05/01 08:40:24;;;;;;;6.55;4.82;;;;;;;11.90;71.89;150282.59;5089907;28;20035;-64
2023/05/01 08:42:50;;;;;;;5.70;4.50;;;;;;;11.97;69.64;150298.03;5102170;28;20028;-65
2023/05/01 08:45:20;;;;;;;5.55;4.10;;;;;;;11.97;69.15;150299.34;5102363;28;20054;-63
2023/05/01 08:47:46;;;;;;;5.90;4.45;;;;;;;11.94;67.55;150291.59;5102218;28;20107;-66
2023/05/01 08:50:13;;;;;;;7.13;4.05;;;;;;;11.85;68.67;150269.75;5102188;28;20048;-65
2023/05/01 08:52:42;;;;;;;9.18;4.38;;;;;;;11.99;67.90;150303.19;5092197;28;20024;-65
2023/05/01 08:55:13;;;;;;;6.55;4.47;;;;;;;11.96;67.24;150295.50;5087601;28;20020;-63
2023/05/01 08:57:45;;;;;;;10.02;4.05;;;;;;;11.88;66.20;150276.16;5102047;28;20049;-65
2023/05/01 09:00:17;;;;;;;8.30;4.07;;;;;;;11.90;66.27;150281.34;5102260;28;20032;-65
2023/05/01 09:02:45;;;;;;;7.75;4.85;;;;;;;11.96;66.50;150296.78;5083141;28;20086;-65
2023/05/01 09:05:12;;;;;;;6.25;4.38;;;;;;;11.97;66.48;150298.03;5081465;28;20104;-64
2023/05/01 09:07:39;;;;;;;6.50;4.88;;;;;;;11.84;67.27;150267.22;5091538;28;20055;-65
2023/05/01 09:10:06;;;;;;;8.55;4.68;;;;;;;11.81;67.57;150259.47;5096788;28;20036;-64
2023/05/01 09:12:34;;;;;;;6.03;4.20;;;;;;;11.80;67.90;150256.94;5082437;28;20040;-64
2023/05/01 09:15:02;;;;;;;5.50;4.05;;;;;;;11.80;68.53;150256.94;5103224;28;20070;-64
2023/05/01 09:17:30;;;;;;;5.75;3.80;;;;;;;11.85;68.26;150269.75;5088973;28;20035;-64
2023/05/01 09:19:56;;;;;;;6.82;3.88;;;;;;;11.97;68.66;150298.03;5079690;28;20334;-64
2023/05/01 09:22:22;;;;;;;6.78;4.35;;;;;;;11.91;68.96;150285.19;5105767;28;20020;-65
2023/05/01 09:24:48;;;;;;;5.70;4.10;;;;;;;11.90;68.65;150282.59;5103060;28;20024;-67
2023/05/01 09:27:13;;;;;;;6.40;4.10;;;;;;;11.94;68.18;150290.34;5085627;28;20088;-66
2023/05/01 09:29:44;;;;;;;6.18;4.53;;;;;;;11.99;68.03;150304.47;5085532;28;20213;-64
2023/05/01 09:32:15;;;;;;;6.00;4.15;;;;;;;11.88;66.23;150277.44;5101146;28;20039;-65
2023/05/01 09:34:42;;;;;;;6.80;3.78;;;;;;;11.98;67.47;150301.88;5087586;28;20044;-64
2023/05/01 09:37:11;;;;;;;7.80;4.63;;;;;;;11.81;67.85;150259.47;5090737;28;20024;-64
2023/05/01 09:39:37;;;;;;;7.57;4.00;;;;;;;11.96;67.42;150296.78;5104428;28;20028;-64
2023/05/01 09:42:02;;;;;;;8.25;4.43;;;;;;;11.75;66.09;150244.09;5095488;28;20040;-64
2023/05/01 09:44:28;;;;;;;4.25;3.72;;;;;;;11.81;66.71;150259.47;5105458;28;20020;-65
2023/05/01 09:46:54;;;;;;;5.60;3.97;;;;;;;11.92;65.88;150287.72;5105310;28;20023;-65
2023/05/01 09:49:40;;;;;;;5.40;4.25;;;;;;;11.92;65.31;150286.44;5098508;28;20201;-65
2023/05/01 09:52:15;;;;;;;6.25;4.28;;;;;;;11.87;65.23;150273.59;5089973;28;20073;-64
2023/05/01 09:54:42;;;;;;;7.32;4.65;;;;;;;11.83;64.73;150264.63;5085691;28;20044;-64
2023/05/01 09:57:08;;;;;;;4.88;4.28;;;;;;;11.77;63.83;150249.19;5085031;28;20031;-65
2023/05/01 09:59:34;;;;;;;9.55;4.30;;;;;;;11.73;64.33;150240.22;5084092;28;20292;-65
2023/05/01 10:02:00;;;;;;;9.73;3.95;;;;;;;12.04;65.58;150316.00;5104413;28;20028;-64
2023/05/01 10:04:33;;;;;;;6.53;3.72;;;;;;;12.13;65.42;150339.13;5097193;28;20040;-64
2023/05/01 10:07:11;;;;;;;5.53;4.00;;;;;;;12.22;64.50;150362.22;5070383;28;20257;-63
2023/05/01 10:09:37;;;;;;;8.90;4.65;;;;;;;12.36;65.37;150395.66;5104192;28;20032;-65
2023/05/01 10:12:03;;;;;;;8.38;4.80;;;;;;;12.14;63.24;150340.41;5084532;28;20024;-65
2023/05/01 10:14:32;;;;;;;7.90;4.55;;;;;;;12.09;65.17;150330.13;5049919;28;20235;-65
2023/05/01 10:16:58;;;;;;;7.15;4.47;;;;;;;11.94;62.78;150291.59;5096370;28;20050;-64
2023/05/01 10:19:24;;;;;;;7.18;3.90;;;;;;;12.12;63.93;150336.56;5086660;28;20024;-65
2023/05/01 10:21:51;;;;;;;5.75;4.32;;;;;;;11.73;63.43;150240.22;5102295;28;20209;-65
2023/05/01 10:24:17;;;;;;;6.10;4.22;;;;;;;11.76;64.43;150246.66;5084655;28;20309;-65
2023/05/01 10:26:43;;;;;;;10.15;4.40;;;;;;;12.07;64.55;150323.69;5083301;28;20020;-66
2023/05/01 10:29:10;;;;;;;6.85;4.25;;;;;;;12.20;63.99;150355.81;5091230;28;20245;-65
2023/05/01 10:31:36;;;;;;;6.60;4.20;;;;;;;12.24;63.70;150367.38;5089168;28;20092;-65
2023/05/01 10:34:02;;;;;;;7.57;3.85;;;;;;;12.17;64.14;150349.41;5104348;28;20377;-66
2023/05/01 10:36:42;;;;;;;5.78;3.80;;;;;;;12.17;62.69;150349.41;5104278;28;20198;-65
2023/05/01 10:39:34;;;;;;;4.13;3.50;;;;;;;12.08;63.73;150327.59;5066699;28;20035;-65
2023/05/01 10:42:03;;;;;;;5.22;3.72;;;;;;;12.04;63.25;150316.00;5093911;28;20024;-65
2023/05/01 10:44:29;;;;;;;4.85;4.07;;;;;;;11.96;64.62;150295.50;5086160;28;20035;-65
2023/05/01 10:46:55;;;;;;;6.63;3.83;;;;;;;12.01;64.91;150308.31;5104136;28;20329;-65
2023/05/01 10:49:21;;;;;;;4.93;4.22;;;;;;;11.96;64.82;150296.78;5097666;28;20027;-65
2023/05/01 10:52:00;;;;;;;9.77;3.20;;;;;;;11.45;65.64;150169.63;5085544;28;20221;-65
2023/05/01 10:54:27;;;;;;;6.72;3.50;;;;;;;11.36;65.68;150146.56;5104177;28;20114;-64
2023/05/01 10:56:54;;;;;;;6.07;3.75;;;;;;;11.19;66.32;150105.47;5084658;28;20028;-65
2023/05/01 10:59:20;;;;;;;7.35;3.35;;;;;;;11.32;66.73;150137.56;5098672;28;20047;-65
2023/05/01 11:01:47;;;;;;;8.05;3.70;;;;;;;10.97;68.98;150049.03;5076096;28;20044;-64
2023/05/01 11:04:47;;;;;;;6.70;3.38;;;;;;;10.81;68.42;150010.53;5088826;28;20209;-64
2023/05/01 11:07:14;;;;;;;5.07;3.00;;;;;;;10.85;69.42;150020.81;5098726;28;20035;-65
2023/05/01 11:09:44;;;;;;;8.45;3.35;;;;;;;10.68;69.05;149977.22;5083776;28;20020;-64
2023/05/01 11:12:40;;;;;;;7.20;4.22;;;;;;;10.48;69.91;149927.19;5095581;28;20035;-65
2023/05/01 11:15:07;;;;;;;6.28;4.55;;;;;;;10.44;69.37;149918.19;5065854;28;20047;-65
2023/05/01 11:17:40;;;;;;;6.30;3.10;;;;;;;10.48;69.86;149927.19;5085219;28;20092;-66
2023/05/01 11:20:09;;;;;;;5.45;3.60;;;;;;;10.30;69.60;149882.25;5100854;28;20034;-65
2023/05/01 11:22:36;;;;;;;8.52;3.30;;;;;;;9.83;70.24;149766.91;5103315;28;20032;-66
2023/05/01 11:25:03;;;;;;;6.30;3.15;;;;;;;9.78;70.46;149754.06;5100175;28;20036;-65
2023/05/01 11:27:29;;;;;;;4.93;3.10;;;;;;;9.66;70.84;149723.28;5103163;28;20032;-64
2023/05/01 11:29:58;;;;;;;5.15;3.20;;;;;;;9.59;71.08;149705.34;5101284;28;20036;-65
2023/05/01 11:32:26;;;;;;;5.38;2.85;;;;;;;9.59;70.91;149706.66;5093745;28;20024;-64